Time;durP1;ratioP1;P1;durP2;ratioP2;P2;SDS_P1;SDS_P2;PMS_P1;PMS_P2;Temp;Humidity;BMP_temperature;BMP_pressure;BME280_temperature;BME280_humidity;BME280_pressure;Samples;Min_cycle;Max_cycle;Signal;HPM_P1;HPM_P2
2021/06/09 00:02:07;;;;;;;26.93;24.27;;;15.20;99.90;;;;;;4906307;29;20469;-83
2021/06/09 00:04:36;;;;;;;26.93;23.60;;;15.20;99.90;;;;;;4911027;29;20877;-83
2021/06/09 00:07:03;;;;;;;28.73;25.83;;;15.10;99.90;;;;;;4900424;29;20468;-83
2021/06/09 00:09:31;;;;;;;28.23;25.27;;;15.10;99.90;;;;;;4916390;29;20462;-83
2021/06/09 00:11:59;;;;;;;28.43;25.60;;;15.10;99.90;;;;;;4918269;29;20452;-83
2021/06/09 00:14:28;;;;;;;30.90;27.60;;;15.10;99.90;;;;;;4899973;29;20482;-83
2021/06/09 00:16:59;;;;;;;40.30;27.60;;;15.20;99.90;;;;;;4914631;28;20503;-83
2021/06/09 00:19:27;;;;;;;45.07;27.20;;;15.20;99.90;;;;;;4910482;29;20440;-83
2021/06/09 00:21:56;;;;;;;66.07;28.80;;;15.20;99.90;;;;;;4923897;29;20466;-83
2021/06/09 00:24:23;;;;;;;56.27;24.60;;;15.20;99.90;;;;;;4917026;29;21151;-84
2021/06/09 00:26:51;;;;;;;57.00;25.47;;;15.20;99.90;;;;;;4921575;29;20958;-82
2021/06/09 00:29:18;;;;;;;65.00;25.60;;;15.10;99.90;;;;;;4918517;28;20466;-83
2021/06/09 00:31:44;;;;;;;57.43;26.30;;;15.00;99.90;;;;;;4919065;29;20594;-83
2021/06/09 00:34:10;;;;;;;36.07;24.67;;;15.00;99.90;;;;;;4917596;29;20439;-83
2021/06/09 00:36:37;;;;;;;55.90;25.50;;;14.90;99.90;;;;;;4914949;29;20989;-83
2021/06/09 00:39:05;;;;;;;57.60;24.50;;;14.90;99.90;;;;;;4921490;28;21655;-83
2021/06/09 00:41:31;;;;;;;78.40;28.27;;;14.90;99.90;;;;;;4912372;28;20512;-83
2021/06/09 00:43:57;;;;;;;71.17;27.90;;;14.90;99.90;;;;;;4915051;28;20498;-82
2021/06/09 00:46:35;;;;;;;95.27;27.17;;;14.80;99.90;;;;;;4923658;29;20450;-83
2021/06/09 00:49:02;;;;;;;62.80;25.40;;;14.70;99.90;;;;;;4922307;29;20480;-83
2021/06/09 00:51:28;;;;;;;84.50;27.63;;;14.60;99.90;;;;;;4925595;29;20443;-83
2021/06/09 00:53:58;;;;;;;85.20;27.57;;;14.60;99.90;;;;;;4917185;29;20491;-83
2021/06/09 00:56:25;;;;;;;31.97;24.40;;;14.60;99.90;;;;;;4918653;29;20454;-83
2021/06/09 00:58:52;;;;;;;33.73;23.80;;;14.50;99.90;;;;;;4920894;28;20643;-83
2021/06/09 01:01:22;;;;;;;32.43;23.27;;;14.50;99.90;;;;;;4921747;28;20443;-83
2021/06/09 01:03:50;;;;;;;45.73;24.47;;;14.60;99.90;;;;;;4915121;28;20475;-83
2021/06/09 01:06:17;;;;;;;35.73;21.53;;;14.60;99.90;;;;;;4914938;28;20999;-83
2021/06/09 01:08:44;;;;;;;25.13;21.13;;;14.60;99.90;;;;;;4907761;29;20503;-83
2021/06/09 01:11:25;;;;;;;52.43;23.63;;;14.60;99.90;;;;;;4915619;29;20449;-83
2021/06/09 01:13:54;;;;;;;56.87;21.30;;;14.60;99.90;;;;;;4920986;28;20459;-83
2021/06/09 01:16:20;;;;;;;52.63;21.77;;;14.70;99.90;;;;;;4917228;28;20492;-82
2021/06/09 01:18:47;;;;;;;45.67;21.70;;;14.70;99.90;;;;;;4920243;29;20454;-83
2021/06/09 01:21:13;;;;;;;34.33;22.40;;;14.60;99.90;;;;;;4918524;29;20494;-83
2021/06/09 01:23:40;;;;;;;26.77;23.13;;;14.60;99.90;;;;;;4912172;29;20454;-83
2021/06/09 01:26:09;;;;;;;33.13;25.13;;;14.60;99.90;;;;;;4917308;28;20468;-83
2021/06/09 01:28:37;;;;;;;54.77;26.50;;;14.60;99.90;;;;;;4915547;28;20454;-83
2021/06/09 01:31:05;;;;;;;32.83;25.00;;;14.60;99.90;;;;;;4913272;29;20451;-83
2021/06/09 01:33:31;;;;;;;58.63;25.20;;;14.60;99.90;;;;;;4912512;28;20491;-83
2021/06/09 01:35:58;;;;;;;53.63;26.17;;;14.50;99.90;;;;;;4912666;28;20491;-83
2021/06/09 01:38:37;;;;;;;47.77;24.50;;;14.60;99.90;;;;;;4914524;29;20456;-83
2021/06/09 01:41:07;;;;;;;41.20;23.67;;;14.60;99.90;;;;;;4912615;29;20522;-83
2021/06/09 01:43:34;;;;;;;167.00;29.40;;;14.60;99.90;;;;;;4917717;29;20466;-83
2021/06/09 01:46:02;;;;;;;92.63;25.17;;;14.60;99.90;;;;;;4909730;28;20533;-83
2021/06/09 01:48:28;;;;;;;83.07;22.23;;;14.60;99.90;;;;;;4916864;28;20475;-83
2021/06/09 01:50:55;;;;;;;29.07;20.60;;;14.50;99.90;;;;;;4927896;28;20471;-83
2021/06/09 01:53:21;;;;;;;83.53;24.40;;;14.40;99.90;;;;;;4898536;29;20472;-83
2021/06/09 01:55:48;;;;;;;109.93;25.53;;;14.50;99.90;;;;;;4911093;29;20578;-83
2021/06/09 01:58:14;;;;;;;58.37;22.57;;;14.40;99.90;;;;;;4917751;29;20451;-83
2021/06/09 02:00:47;;;;;;;39.17;20.60;;;14.40;99.90;;;;;;4915448;29;20468;-83
2021/06/09 02:03:15;;;;;;;138.13;24.77;;;14.40;99.90;;;;;;4912970;29;20458;-83
2021/06/09 02:05:42;;;;;;;35.67;21.57;;;14.40;99.90;;;;;;4901080;29;20532;-83
2021/06/09 02:08:10;;;;;;;108.63;27.77;;;14.30;99.90;;;;;;4915840;29;20459;-83
2021/06/09 02:10:38;;;;;;;81.63;23.10;;;14.30;99.90;;;;;;4911085;29;20563;-83
2021/06/09 02:13:08;;;;;;;29.97;21.77;;;14.30;99.90;;;;;;4917014;29;20902;-83
2021/06/09 02:15:35;;;;;;;48.93;20.63;;;14.40;99.90;;;;;;4913735;29;20492;-83
2021/06/09 02:18:13;;;;;;;53.70;20.17;;;14.40;99.90;;;;;;4914709;29;20442;-83
2021/06/09 02:20:49;;;;;;;49.33;19.00;;;14.40;99.90;;;;;;4910130;28;20518;-83
2021/06/09 02:23:21;;;;;;;52.13;19.57;;;14.50;99.90;;;;;;4902165;29;20490;-83
2021/06/09 02:25:56;;;;;;;45.10;19.90;;;14.40;99.90;;;;;;4915103;28;20840;-83
2021/06/09 02:28:24;;;;;;;33.50;20.90;;;14.30;99.90;;;;;;4913282;29;20455;-82
2021/06/09 02:30:55;;;;;;;59.43;21.07;;;14.20;99.90;;;;;;4918014;29;20491;-83
2021/06/09 02:33:23;;;;;;;46.37;21.07;;;14.20;99.90;;;;;;4910392;29;20452;-83
2021/06/09 02:35:51;;;;;;;27.73;19.70;;;14.30;99.90;;;;;;4911422;29;21054;-83
2021/06/09 02:38:19;;;;;;;20.30;18.30;;;14.30;99.90;;;;;;4911183;28;20475;-83
2021/06/09 02:40:49;;;;;;;48.23;20.97;;;14.30;99.90;;;;;;4913012;29;20455;-83
2021/06/09 02:43:17;;;;;;;26.43;21.50;;;14.30;99.90;;;;;;4918030;29;21017;-83
2021/06/09 02:45:53;;;;;;;28.33;20.83;;;14.40;99.90;;;;;;4909733;28;20846;-83
2021/06/09 02:48:25;;;;;;;47.77;20.60;;;14.30;99.90;;;;;;4914629;29;20462;-83
2021/06/09 02:50:51;;;;;;;47.17;22.37;;;14.30;99.90;;;;;;4915240;28;20471;-83
2021/06/09 02:53:37;;;;;;;28.43;21.43;;;14.30;99.90;;;;;;4915299;28;20566;-83
2021/06/09 02:56:25;;;;;;;24.20;21.40;;;14.30;99.90;;;;;;4914332;29;22354;-83
2021/06/09 02:59:15;;;;;;;41.43;20.60;;;14.40;99.90;;;;;;4918188;29;20459;-83
2021/06/09 03:01:50;;;;;;;48.17;20.70;;;14.40;99.90;;;;;;4917954;29;20517;-83
2021/06/09 03:04:25;;;;;;;21.97;19.77;;;14.40;99.90;;;;;;4918643;29;20455;-83
2021/06/09 03:07:02;;;;;;;22.03;19.83;;;14.40;99.90;;;;;;4911370;28;20442;-84
2021/06/09 03:10:04;;;;;;;20.57;18.27;;;14.40;99.90;;;;;;4914863;29;20448;-83
2021/06/09 03:13:20;;;;;;;25.87;19.80;;;14.40;99.90;;;;;;4903924;29;20941;-83
2021/06/09 03:15:59;;;;;;;20.13;18.07;;;14.40;99.90;;;;;;4882409;28;21001;-83
2021/06/09 03:18:34;;;;;;;26.10;19.47;;;14.40;99.90;;;;;;4917201;28;20551;-83
2021/06/09 03:21:06;;;;;;;20.13;18.13;;;14.40;99.90;;;;;;4917815;29;20541;-83
2021/06/09 03:23:50;;;;;;;29.10;20.97;;;14.40;99.90;;;;;;4921129;28;20551;-83
2021/06/09 03:26:35;;;;;;;21.57;18.20;;;14.40;99.90;;;;;;4917667;29;20458;-83
2021/06/09 03:29:18;;;;;;;22.30;19.33;;;14.40;99.90;;;;;;4918608;29;20452;-83
2021/06/09 03:31:51;;;;;;;24.57;19.47;;;14.40;99.90;;;;;;4916777;28;20468;-83
2021/06/09 03:34:29;;;;;;;22.03;19.83;;;14.40;99.90;;;;;;4906527;29;20455;-83
2021/06/09 03:37:00;;;;;;;21.33;19.03;;;14.30;99.90;;;;;;4911816;28;20460;-83
2021/06/09 03:42:37;;;;;;;25.03;20.67;;;14.40;99.90;;;;;;4911331;28;20525;-83
2021/06/09 03:45:05;;;;;;;26.87;22.70;;;14.30;99.90;;;;;;4912854;29;20566;-83
2021/06/09 03:47:33;;;;;;;27.43;23.47;;;14.30;99.90;;;;;;4916963;29;20488;-83
2021/06/09 03:50:00;;;;;;;39.67;25.00;;;14.20;99.90;;;;;;4908839;29;20993;-83
2021/06/09 03:52:27;;;;;;;37.63;23.30;;;14.20;99.90;;;;;;4926357;29;20505;-83
2021/06/09 03:54:58;;;;;;;26.37;22.33;;;14.20;99.90;;;;;;4911641;28;21233;-83
2021/06/09 03:57:25;;;;;;;24.50;19.83;;;14.30;99.90;;;;;;4915767;28;20845;-83
2021/06/09 03:59:54;;;;;;;24.37;20.20;;;14.40;99.90;;;;;;4907624;29;20494;-83
2021/06/09 04:02:23;;;;;;;38.27;19.13;;;14.40;99.90;;;;;;4913621;28;20688;-83
2021/06/09 04:04:56;;;;;;;41.67;20.23;;;14.50;99.90;;;;;;4906718;29;20874;-83
2021/06/09 04:07:23;;;;;;;29.23;19.90;;;14.50;99.90;;;;;;4907181;28;20578;-82
2021/06/09 04:09:51;;;;;;;22.97;20.53;;;14.50;99.90;;;;;;4909271;28;20866;-83
2021/06/09 04:12:18;;;;;;;27.97;20.80;;;14.60;99.90;;;;;;4913344;29;20447;-83
2021/06/09 04:14:48;;;;;;;21.73;19.40;;;14.50;99.90;;;;;;4909704;28;20490;-83
2021/06/09 04:17:23;;;;;;;22.50;18.70;;;14.60;99.90;;;;;;4911812;29;21044;-83
2021/06/09 04:19:50;;;;;;;21.53;17.53;;;14.60;99.90;;;;;;4914656;29;20448;-83
2021/06/09 04:22:16;;;;;;;19.70;17.70;;;14.70;99.90;;;;;;4910157;28;20475;-83
2021/06/09 04:24:42;;;;;;;20.60;18.47;;;14.70;99.90;;;;;;4913397;29;21100;-83
2021/06/09 04:27:14;;;;;;;22.43;20.13;;;14.80;99.90;;;;;;4914829;28;20467;-83
2021/06/09 04:29:43;;;;;;;22.07;19.20;;;14.80;99.90;;;;;;4914037;28;20969;-83
2021/06/09 04:32:09;;;;;;;20.87;18.67;;;14.90;99.90;;;;;;4913848;29;20455;-83
2021/06/09 04:34:52;;;;;;;19.63;17.60;;;14.90;99.90;;;;;;4905447;28;20490;-84
2021/06/09 04:37:31;;;;;;;20.50;18.40;;;14.80;99.90;;;;;;4892474;29;20800;-84
2021/06/09 04:39:57;;;;;;;24.90;18.30;;;14.80;99.90;;;;;;4912286;28;20663;-82
2021/06/09 04:42:23;;;;;;;20.20;18.13;;;14.90;99.90;;;;;;4912363;28;20675;-81
2021/06/09 04:44:49;;;;;;;20.70;18.60;;;14.90;99.90;;;;;;4914725;29;20200;-82
2021/06/09 04:47:15;;;;;;;20.53;18.53;;;15.00;99.90;;;;;;4914872;29;20451;-81
2021/06/09 04:49:45;;;;;;;19.40;17.03;;;15.10;99.90;;;;;;4918740;29;20526;-82
2021/06/09 04:52:12;;;;;;;21.57;19.13;;;15.10;99.90;;;;;;4914654;29;20648;-81
2021/06/09 04:54:40;;;;;;;19.97;18.07;;;15.10;99.90;;;;;;4916787;28;20486;-82
2021/06/09 04:57:07;;;;;;;19.10;17.10;;;15.10;99.90;;;;;;4911528;28;20509;-82
2021/06/09 04:59:34;;;;;;;19.83;17.67;;;15.20;99.90;;;;;;4912056;29;20439;-82
2021/06/09 05:01:59;;;;;;;17.87;16.17;;;15.30;99.90;;;;;;4914715;28;20471;-81
2021/06/09 05:04:25;;;;;;;18.30;16.50;;;15.40;99.90;;;;;;4914308;29;20985;-82
2021/06/09 05:06:52;;;;;;;18.70;16.83;;;15.50;99.90;;;;;;4908525;29;20187;-81
2021/06/09 05:09:18;;;;;;;18.43;16.50;;;15.60;99.90;;;;;;4908719;29;20901;-82
2021/06/09 05:11:55;;;;;;;17.53;15.73;;;15.70;99.90;;;;;;4914770;29;20474;-82
2021/06/09 05:14:27;;;;;;;17.67;15.97;;;15.60;99.90;;;;;;4912025;29;20715;-81
2021/06/09 05:16:55;;;;;;;19.43;17.63;;;15.80;99.90;;;;;;4901939;29;20485;-82
2021/06/09 05:19:25;;;;;;;17.93;16.13;;;15.80;99.90;;;;;;4914593;28;20452;-81
2021/06/09 05:21:54;;;;;;;17.37;15.53;;;15.90;99.90;;;;;;4908624;28;21248;-82
2021/06/09 05:24:26;;;;;;;16.97;15.47;;;15.90;99.90;;;;;;4912613;29;20447;-82
2021/06/09 05:26:52;;;;;;;16.80;15.10;;;15.90;99.90;;;;;;4913343;28;20471;-81
2021/06/09 05:29:20;;;;;;;19.13;17.37;;;15.90;99.90;;;;;;4912677;29;20436;-81
2021/06/09 05:31:49;;;;;;;17.93;16.13;;;15.90;99.90;;;;;;4913252;29;20525;-82
2021/06/09 05:34:17;;;;;;;18.57;16.57;;;15.80;99.90;;;;;;4914513;28;20467;-81
2021/06/09 05:36:43;;;;;;;18.80;17.10;;;15.70;99.90;;;;;;4914622;29;20489;-82
2021/06/09 05:39:09;;;;;;;19.40;17.60;;;15.70;99.90;;;;;;4912484;28;20526;-82
2021/06/09 05:41:36;;;;;;;18.47;16.57;;;15.70;99.90;;;;;;4909512;29;20612;-82
2021/06/09 05:44:02;;;;;;;17.20;15.70;;;15.80;99.90;;;;;;4909162;29;21180;-82
2021/06/09 05:46:28;;;;;;;18.93;17.03;;;16.00;99.90;;;;;;4909639;29;20456;-82
2021/06/09 05:48:54;;;;;;;19.60;17.80;;;16.00;99.90;;;;;;4906529;28;20973;-82
2021/06/09 05:51:22;;;;;;;18.03;16.43;;;16.00;99.90;;;;;;4910445;28;20464;-82
2021/06/09 05:53:54;;;;;;;19.73;17.93;;;16.10;99.90;;;;;;4909935;28;20460;-82
2021/06/09 05:56:20;;;;;;;18.07;16.47;;;16.10;99.90;;;;;;4907127;29;20490;-82
2021/06/09 05:58:46;;;;;;;21.60;17.27;;;16.20;99.90;;;;;;4908913;29;20474;-82
2021/06/09 06:01:12;;;;;;;18.67;16.87;;;16.20;99.90;;;;;;4909467;29;20554;-82
2021/06/09 06:03:42;;;;;;;19.50;17.77;;;16.10;99.90;;;;;;4908594;28;20507;-82
2021/06/09 06:06:10;;;;;;;18.50;16.80;;;16.20;99.90;;;;;;4906791;29;21007;-82
2021/06/09 06:08:38;;;;;;;18.57;16.77;;;16.20;99.90;;;;;;4908206;29;20466;-82
2021/06/09 06:11:07;;;;;;;19.33;17.43;;;16.20;99.90;;;;;;4908073;28;20464;-81
2021/06/09 06:16:21;;;;;;;22.77;18.33;;;16.40;99.90;;;;;;4905115;29;20492;-82
2021/06/09 06:18:51;;;;;;;20.73;18.70;;;16.60;99.90;;;;;;4900154;29;20447;-82
2021/06/09 06:21:18;;;;;;;20.50;18.60;;;16.70;99.90;;;;;;4907731;29;20526;-81
2021/06/09 06:23:46;;;;;;;22.70;20.60;;;16.80;99.90;;;;;;4935627;28;20446;-82
2021/06/09 06:26:15;;;;;;;22.43;20.13;;;16.80;99.90;;;;;;4909644;29;20547;-82
2021/06/09 06:28:44;;;;;;;21.30;19.20;;;16.80;99.90;;;;;;4904827;29;20495;-82
2021/06/09 06:31:18;;;;;;;24.17;20.23;;;16.90;99.90;;;;;;4909252;29;20460;-82
2021/06/09 06:33:46;;;;;;;23.10;20.70;;;17.00;99.90;;;;;;4909892;29;20447;-82
2021/06/09 06:36:16;;;;;;;25.90;20.20;;;17.10;99.90;;;;;;4918107;28;20489;-82
2021/06/09 06:38:46;;;;;;;22.13;19.93;;;17.00;99.90;;;;;;4911107;29;20468;-82
2021/06/09 06:41:13;;;;;;;23.10;20.80;;;17.00;99.90;;;;;;4911118;28;20472;-82
2021/06/09 06:43:41;;;;;;;23.00;19.70;;;17.20;99.90;;;;;;4896766;29;21186;-82
2021/06/09 06:46:14;;;;;;;23.40;20.80;;;17.30;99.90;;;;;;4910665;29;20469;-82
2021/06/09 06:48:43;;;;;;;22.47;20.37;;;17.30;99.90;;;;;;4905070;28;20521;-83
2021/06/09 06:51:10;;;;;;;21.17;19.20;;;17.40;99.90;;;;;;4911485;28;20837;-82
2021/06/09 06:53:56;;;;;;;21.53;19.60;;;17.80;99.90;;;;;;4903972;28;20516;-83
2021/06/09 06:56:24;;;;;;;20.30;18.40;;;18.10;99.90;;;;;;4907721;28;20488;-82
2021/06/09 06:58:51;;;;;;;22.97;20.67;;;18.20;99.90;;;;;;4908760;29;20467;-82
2021/06/09 07:01:34;;;;;;;24.83;22.23;;;17.80;99.90;;;;;;4903579;29;21195;-83
2021/06/09 07:04:08;;;;;;;23.23;20.93;;;17.60;99.90;;;;;;4904921;29;21671;-84
2021/06/09 07:06:38;;;;;;;22.27;20.17;;;17.20;99.90;;;;;;4892647;29;20972;-83
2021/06/09 07:09:05;;;;;;;23.30;20.87;;;17.10;99.90;;;;;;4904052;28;20466;-83
2021/06/09 07:11:33;;;;;;;23.23;20.93;;;17.10;99.90;;;;;;4904340;28;20885;-84
2021/06/09 07:14:00;;;;;;;25.33;22.80;;;17.10;99.90;;;;;;4903409;28;20977;-84
2021/06/09 07:16:32;;;;;;;25.27;22.77;;;17.20;99.90;;;;;;4920611;28;20495;-84
2021/06/09 07:19:00;;;;;;;24.50;22.20;;;17.40;99.90;;;;;;4907490;28;20551;-84
2021/06/09 07:21:26;;;;;;;25.50;23.00;;;17.70;99.90;;;;;;4905266;28;20928;-84
2021/06/09 07:24:03;;;;;;;25.90;23.60;;;17.80;99.90;;;;;;4891558;29;20463;-84
2021/06/09 07:26:32;;;;;;;26.53;24.00;;;17.80;99.90;;;;;;4910562;28;20518;-83
2021/06/09 07:28:59;;;;;;;26.33;23.73;;;17.80;99.90;;;;;;4892665;28;20561;-84
2021/06/09 07:31:30;;;;;;;27.03;24.43;;;17.70;99.90;;;;;;4921184;28;20468;-84
2021/06/09 07:33:57;;;;;;;24.20;21.90;;;17.70;99.90;;;;;;4915278;28;20456;-84
2021/06/09 07:36:47;;;;;;;24.67;22.20;;;17.90;99.90;;;;;;4892139;28;20503;-84
2021/06/09 07:39:35;;;;;;;25.33;22.73;;;18.10;99.90;;;;;;4903104;28;20472;-85
2021/06/09 07:42:12;;;;;;;25.43;23.03;;;18.30;99.90;;;;;;4903952;28;20558;-84
2021/06/09 07:44:59;;;;;;;24.97;22.57;;;18.50;99.90;;;;;;4892952;28;20654;-84
2021/06/09 07:47:48;;;;;;;26.63;23.80;;;18.70;99.90;;;;;;4899011;28;20467;-84
2021/06/09 07:50:23;;;;;;;26.90;24.10;;;18.90;99.90;;;;;;4905830;28;20468;-82
2021/06/09 07:52:51;;;;;;;24.80;22.40;;;19.30;99.90;;;;;;4903233;28;20542;-82
2021/06/09 07:55:21;;;;;;;27.53;24.93;;;19.70;99.90;;;;;;4902493;28;20586;-82
2021/06/09 07:57:48;;;;;;;24.10;21.93;;;19.90;99.90;;;;;;4907293;28;20550;-82
2021/06/09 08:00:15;;;;;;;24.83;22.40;;;20.20;99.90;;;;;;4907081;28;20825;-83
2021/06/09 08:02:44;;;;;;;23.97;21.77;;;20.30;99.90;;;;;;4916699;28;20541;-83
2021/06/09 08:05:17;;;;;;;25.20;23.00;;;20.30;99.90;;;;;;4910212;28;21092;-83
2021/06/09 08:07:45;;;;;;;23.93;21.63;;;20.70;99.90;;;;;;4909547;28;20471;-83
2021/06/09 08:10:13;;;;;;;25.33;23.03;;;20.80;99.90;;;;;;4903229;28;21351;-84
2021/06/09 08:12:40;;;;;;;25.83;23.43;;;21.00;99.90;;;;;;4906311;28;20471;-85
2021/06/09 08:15:13;;;;;;;27.20;24.40;;;20.60;99.90;;;;;;4907219;28;20606;-84
2021/06/09 08:17:53;;;;;;;27.23;24.73;;;20.60;99.90;;;;;;4911923;28;20486;-85
2021/06/09 08:20:26;;;;;;;26.23;23.93;;;20.90;99.90;;;;;;4910990;28;20472;-85
2021/06/09 08:22:54;;;;;;;27.70;25.10;;;21.00;99.90;;;;;;4910332;28;20956;-83
2021/06/09 08:25:24;;;;;;;30.50;27.70;;;20.90;99.90;;;;;;4912032;28;20465;-82
2021/06/09 08:27:54;;;;;;;29.40;26.80;;;20.70;99.90;;;;;;4910171;28;20560;-84
2021/06/09 08:30:22;;;;;;;28.63;25.93;;;20.60;99.90;;;;;;4905344;28;20480;-84
2021/06/09 08:32:49;;;;;;;29.53;26.63;;;20.60;99.90;;;;;;4889414;28;21019;-84
2021/06/09 08:35:18;;;;;;;28.17;25.57;;;20.50;99.90;;;;;;4916051;28;20543;-84
2021/06/09 08:37:51;;;;;;;28.27;25.57;;;20.70;99.90;;;;;;4907459;28;20522;-84
2021/06/09 08:40:22;;;;;;;28.03;25.50;;;20.80;99.90;;;;;;4907456;28;20466;-84
2021/06/09 08:42:54;;;;;;;33.63;30.40;;;21.00;99.90;;;;;;4908491;28;20499;-84
2021/06/09 08:45:25;;;;;;;30.23;27.23;;;21.10;99.90;;;;;;4906783;28;21861;-84
2021/06/09 08:47:52;;;;;;;28.20;25.63;;;21.60;99.90;;;;;;4906037;28;20491;-84
2021/06/09 08:50:22;;;;;;;29.17;26.57;;;21.60;99.90;;;;;;4907628;28;20852;-84
2021/06/09 08:52:54;;;;;;;29.10;26.30;;;21.60;99.90;;;;;;4907547;28;20491;-84
2021/06/09 08:55:23;;;;;;;28.40;25.57;;;21.80;99.90;;;;;;4906311;28;20916;-84
2021/06/09 08:57:49;;;;;;;29.93;27.17;;;21.70;99.90;;;;;;4911120;28;20546;-84
2021/06/09 09:00:38;;;;;;;28.90;26.30;;;21.40;99.90;;;;;;4909056;28;20517;-84
2021/06/09 09:03:11;;;;;;;30.70;27.90;;;21.60;99.90;;;;;;4923878;28;20976;-85
2021/06/09 09:05:42;;;;;;;28.47;25.87;;;21.80;99.90;;;;;;4910689;28;20467;-84
2021/06/09 09:08:11;;;;;;;29.50;26.80;;;22.00;99.90;;;;;;4906165;28;20456;-83
2021/06/09 09:10:38;;;;;;;27.93;25.47;;;22.00;99.90;;;;;;4906566;28;20532;-83
2021/06/09 09:13:12;;;;;;;28.33;25.70;;;22.30;99.90;;;;;;4906059;28;20985;-84
2021/06/09 09:15:38;;;;;;;29.60;27.00;;;22.30;99.90;;;;;;4910758;28;20500;-84
2021/06/09 09:18:12;;;;;;;30.13;27.17;;;22.50;99.90;;;;;;4907682;28;20522;-84
2021/06/09 09:20:42;;;;;;;29.27;26.53;;;22.20;99.90;;;;;;4905848;28;20471;-83
2021/06/09 09:23:29;;;;;;;29.63;26.90;;;22.20;99.90;;;;;;4907493;28;20541;-83
2021/06/09 09:25:59;;;;;;;27.53;25.13;;;22.50;99.90;;;;;;4910583;28;20483;-83
2021/06/09 09:28:30;;;;;;;28.63;25.83;;;22.70;99.90;;;;;;4912408;28;20482;-83
2021/06/09 09:31:19;;;;;;;27.33;24.93;;;23.10;99.90;;;;;;4908259;28;20527;-84
2021/06/09 09:33:48;;;;;;;32.07;29.30;;;23.50;99.90;;;;;;4911678;28;20459;-83
2021/06/09 09:36:27;;;;;;;30.67;27.97;;;23.50;99.90;;;;;;4905219;28;20491;-84
2021/06/09 09:39:01;;;;;;;29.13;26.50;;;23.40;99.90;;;;;;4907863;28;20467;-84
2021/06/09 09:41:41;;;;;;;30.03;27.00;;;23.50;99.90;;;;;;4908831;28;20503;-84
2021/06/09 09:44:10;;;;;;;32.07;29.17;;;23.20;99.90;;;;;;4909550;28;20520;-83
2021/06/09 09:46:56;;;;;;;29.10;26.60;;;23.20;99.90;;;;;;4904207;28;20810;-84
2021/06/09 09:49:43;;;;;;;28.70;26.20;;;23.50;99.90;;;;;;4907428;28;20819;-84
2021/06/09 09:52:11;;;;;;;28.60;26.10;;;23.70;99.90;;;;;;4909604;28;20563;-90
2021/06/09 11:41:56;;;;;;;25.70;23.60;;;27.00;99.90;;;;;;3066554;27;21001;-90
2021/06/09 11:45:02;;;;;;;25.10;23.13;;;26.70;99.90;;;;;;4905359;29;20514;-89
2021/06/09 11:47:36;;;;;;;23.20;21.17;;;26.70;99.90;;;;;;4903166;29;21008;-90
2021/06/09 11:50:39;;;;;;;21.60;20.00;;;26.40;99.90;;;;;;4909691;29;20510;-90
2021/06/09 18:53:11;;;;;;;19.27;17.50;;;19.80;99.90;;;;;;1851806;23;20788;-91
2021/06/09 18:55:38;;;;;;;19.37;17.77;;;19.70;99.90;;;;;;4905595;29;20540;-93
2021/06/09 18:58:10;;;;;;;18.80;17.10;;;19.70;99.90;;;;;;4901387;29;20474;-94
2021/06/09 19:00:38;;;;;;;17.90;16.30;;;19.70;99.90;;;;;;4893528;29;20447;-93
2021/06/09 19:03:07;;;;;;;18.03;16.23;;;19.50;99.90;;;;;;4906384;29;20453;-93
2021/06/09 19:05:53;;;;;;;18.57;17.00;;;19.50;99.90;;;;;;4902444;29;20456;-92
2021/06/09 19:08:22;;;;;;;18.53;16.97;;;19.50;99.90;;;;;;4906613;29;20555;-92
2021/06/09 19:11:05;;;;;;;17.93;16.47;;;19.50;99.90;;;;;;4900422;29;20437;-93
2021/06/09 19:13:45;;;;;;;18.60;16.90;;;19.50;99.90;;;;;;4901406;29;20539;-92
2021/06/09 19:16:30;;;;;;;19.73;17.73;;;19.30;99.90;;;;;;4908347;29;20997;-93
2021/06/09 19:19:08;;;;;;;19.30;17.60;;;19.30;99.90;;;;;;4904826;29;20448;-93
2021/06/09 19:21:35;;;;;;;19.93;17.93;;;19.20;99.90;;;;;;4904761;29;20510;-93
2021/06/09 19:24:03;;;;;;;18.23;16.53;;;19.10;99.90;;;;;;4910120;29;20449;-92
2021/06/09 19:26:30;;;;;;;19.73;18.13;;;19.00;99.90;;;;;;4904863;29;20518;-94
2021/06/09 19:28:57;;;;;;;19.63;17.83;;;18.90;99.90;;;;;;4907338;29;20819;-93
2021/06/09 19:31:24;;;;;;;19.63;17.97;;;18.90;99.90;;;;;;4906282;29;20492;-94
2021/06/09 19:33:50;;;;;;;18.93;17.30;;;18.90;99.90;;;;;;4907024;29;20433;-93
2021/06/09 19:36:16;;;;;;;19.73;18.00;;;18.90;99.90;;;;;;4906847;29;20894;-92
2021/06/09 19:38:45;;;;;;;19.47;17.60;;;18.90;99.90;;;;;;4902165;29;20434;-93
2021/06/09 19:41:11;;;;;;;20.77;18.97;;;18.80;99.90;;;;;;4904165;29;20468;-93
2021/06/09 19:43:38;;;;;;;19.53;17.87;;;18.60;99.90;;;;;;4904068;29;20979;-92
2021/06/09 19:46:04;;;;;;;18.67;17.07;;;18.60;99.90;;;;;;4903949;29;20446;-93
2021/06/09 19:48:30;;;;;;;18.73;17.13;;;18.60;99.90;;;;;;4907191;29;20436;-93
2021/06/09 19:50:56;;;;;;;18.90;17.03;;;18.60;99.90;;;;;;4902360;29;20804;-93
2021/06/09 19:53:31;;;;;;;17.93;16.43;;;18.50;99.90;;;;;;4908490;29;20581;-93
2021/06/09 19:55:59;;;;;;;20.87;18.77;;;18.40;99.90;;;;;;4906060;29;20575;-94
2021/06/09 19:58:25;;;;;;;19.73;18.03;;;18.50;99.90;;;;;;4908156;29;20441;-93
2021/06/09 20:00:52;;;;;;;20.17;18.20;;;18.40;99.90;;;;;;4908552;29;20432;-94
2021/06/09 20:03:20;;;;;;;19.33;17.63;;;18.30;99.90;;;;;;4910057;29;20558;-95
2021/06/09 20:05:46;;;;;;;18.93;17.23;;;18.30;99.90;;;;;;4914014;29;20439;-94
2021/06/09 20:08:11;;;;;;;17.07;15.47;;;18.20;99.90;;;;;;4908834;29;20451;-93
2021/06/09 20:10:37;;;;;;;18.40;16.80;;;18.10;99.90;;;;;;4910810;29;20197;-93
2021/06/09 20:13:03;;;;;;;18.60;16.77;;;18.00;99.90;;;;;;4909218;29;20206;-95
2021/06/09 20:15:30;;;;;;;17.47;16.00;;;18.00;99.90;;;;;;4911865;29;20503;-93
2021/06/09 20:21:00;;;;;;;16.93;15.53;;;18.00;99.90;;;;;;4906986;29;20542;-94
2021/06/09 20:23:30;;;;;;;16.33;14.83;;;17.90;99.90;;;;;;4911751;29;20444;-94
2021/06/09 20:28:56;;;;;;;15.23;13.93;;;17.80;99.90;;;;;;4910527;29;21626;-92
2021/06/09 20:34:02;;;;;;;14.47;13.17;;;17.70;99.90;;;;;;4909111;29;20878;-93
2021/06/09 20:36:28;;;;;;;18.07;14.43;;;17.60;99.90;;;;;;4895082;29;20571;-92
2021/06/09 20:38:54;;;;;;;13.97;12.77;;;17.60;99.90;;;;;;4902090;29;20213;-92
2021/06/09 20:41:20;;;;;;;15.20;13.90;;;17.50;99.90;;;;;;4902563;29;20219;-92
2021/06/09 20:43:47;;;;;;;14.57;13.27;;;17.50;99.90;;;;;;4903224;29;20485;-92
2021/06/09 20:46:14;;;;;;;13.93;12.60;;;17.40;99.90;;;;;;4901720;29;20716;-94
2021/06/09 20:48:40;;;;;;;14.67;13.27;;;17.40;99.90;;;;;;4906836;29;20456;-94
2021/06/09 20:51:06;;;;;;;14.20;13.00;;;17.40;99.90;;;;;;4905692;29;20459;-94
2021/06/09 20:53:32;;;;;;;16.23;14.60;;;17.30;99.90;;;;;;4903003;29;20759;-94
2021/06/09 20:55:58;;;;;;;15.60;14.20;;;17.30;99.90;;;;;;4903856;29;20499;-94
2021/06/09 20:58:24;;;;;;;16.17;14.73;;;17.20;99.90;;;;;;4904226;29;20196;-94
2021/06/09 21:00:50;;;;;;;15.47;13.97;;;17.20;99.90;;;;;;4904211;29;20196;-93
2021/06/09 21:03:16;;;;;;;15.20;13.90;;;17.20;99.90;;;;;;4897913;29;20991;-94
2021/06/09 21:05:42;;;;;;;15.10;13.70;;;17.10;99.90;;;;;;4905374;29;20541;-94
2021/06/09 21:08:09;;;;;;;14.23;13.10;;;17.10;99.90;;;;;;4902231;29;20491;-94
2021/06/09 21:10:35;;;;;;;14.83;13.60;;;17.10;99.90;;;;;;4897029;29;21077;-96
2021/06/09 21:13:04;;;;;;;16.33;14.83;;;17.00;99.90;;;;;;4903614;29;20451;-94
2021/06/09 21:15:31;;;;;;;15.90;14.40;;;17.00;99.90;;;;;;4906132;29;20483;-94
2021/06/09 21:17:57;;;;;;;14.93;13.70;;;17.00;99.90;;;;;;4891657;29;20563;-94
2021/06/09 21:20:22;;;;;;;15.97;14.30;;;17.00;99.90;;;;;;4901780;29;20863;-94
2021/06/09 21:22:48;;;;;;;15.80;14.30;;;16.90;99.90;;;;;;4898946;29;20204;-94
2021/06/09 21:25:14;;;;;;;16.17;14.77;;;17.00;99.90;;;;;;4899659;29;20193;-93
2021/06/09 21:27:41;;;;;;;15.67;14.13;;;17.00;99.90;;;;;;4899498;29;20196;-93
2021/06/09 21:30:09;;;;;;;15.53;14.23;;;16.90;99.90;;;;;;4902881;29;20460;-93
2021/06/09 21:32:34;;;;;;;15.40;14.03;;;16.90;99.90;;;;;;4892039;29;20457;-92
2021/06/09 21:35:01;;;;;;;14.67;13.37;;;16.90;99.90;;;;;;4902848;29;21005;-91
2021/06/09 21:37:26;;;;;;;15.77;14.40;;;16.80;99.90;;;;;;4901520;29;20212;-92
2021/06/09 21:39:56;;;;;;;16.30;14.90;;;16.80;99.90;;;;;;4899410;29;20853;-93
2021/06/09 21:42:23;;;;;;;16.87;15.37;;;16.80;99.90;;;;;;4900480;29;20222;-93
2021/06/09 21:44:49;;;;;;;16.20;14.77;;;16.70;99.90;;;;;;4909512;29;20528;-93